Time;durP1;ratioP1;P1;durP2;ratioP2;P2;SDS_P1;SDS_P2;PMS_P1;PMS_P2;Temp;Humidity;BMP_temperature;BMP_pressure;BME280_temperature;BME280_humidity;BME280_pressure;Samples;Min_cycle;Max_cycle;Signal;HPM_P1;HPM_P2
2023/01/01 00:01:08;;;;;;;6.95;2.42;;;14.40;99.90;;;;;;5116629;28;20248;-54
2023/01/01 00:03:34;;;;;;;6.97;2.60;;;14.30;99.90;;;;;;5116823;28;20552;-51
2023/01/01 00:06:12;;;;;;;6.20;2.72;;;14.40;99.90;;;;;;5115633;28;20403;-51
2023/01/01 00:08:38;;;;;;;5.47;2.47;;;14.50;99.90;;;;;;5115494;28;20188;-53
2023/01/01 00:11:05;;;;;;;5.07;2.78;;;14.40;99.90;;;;;;5116609;28;20174;-52
2023/01/01 00:13:32;;;;;;;6.70;2.40;;;14.30;99.90;;;;;;5116590;27;20529;-53
2023/01/01 00:16:11;;;;;;;6.07;2.30;;;14.40;99.90;;;;;;5114948;28;20177;-51
2023/01/01 00:18:37;;;;;;;10.00;2.72;;;14.40;99.90;;;;;;5116183;28;20209;-50
2023/01/01 00:21:06;;;;;;;8.52;2.83;;;14.40;99.90;;;;;;5116066;28;20173;-51
2023/01/01 00:23:33;;;;;;;7.25;2.92;;;14.30;99.90;;;;;;5116314;28;20211;-54
2023/01/01 00:25:59;;;;;;;5.32;3.65;;;14.30;99.90;;;;;;5116208;28;20496;-52
2023/01/01 00:28:24;;;;;;;8.32;4.38;;;14.30;99.90;;;;;;5115633;28;20173;-51
2023/01/01 00:30:50;;;;;;;7.93;3.30;;;14.40;99.90;;;;;;5116034;28;20178;-54
2023/01/01 00:33:18;;;;;;;6.10;2.80;;;14.40;99.90;;;;;;5116084;28;20526;-54
2023/01/01 00:35:43;;;;;;;6.30;2.70;;;14.40;99.90;;;;;;5115677;28;20630;-54
2023/01/01 00:38:09;;;;;;;6.93;2.63;;;14.30;99.90;;;;;;5115897;28;20222;-52
2023/01/01 00:40:35;;;;;;;8.10;2.85;;;14.30;99.90;;;;;;5115830;28;20532;-54
2023/01/01 00:43:04;;;;;;;6.50;2.60;;;14.30;99.90;;;;;;5115923;28;20272;-54
2023/01/01 00:45:29;;;;;;;8.45;3.03;;;14.30;99.90;;;;;;5115884;28;20196;-52
2023/01/01 00:47:55;;;;;;;4.78;2.80;;;14.30;99.90;;;;;;5115641;28;20201;-54
2023/01/01 00:50:21;;;;;;;7.38;3.13;;;14.30;99.90;;;;;;5115627;28;20173;-54
2023/01/01 00:52:47;;;;;;;5.05;2.90;;;14.30;99.90;;;;;;5115822;28;20177;-50
2023/01/01 00:55:13;;;;;;;7.00;2.65;;;14.30;99.90;;;;;;5115565;28;20268;-53
2023/01/01 00:57:39;;;;;;;9.02;3.03;;;14.30;99.90;;;;;;5115729;28;20280;-51
2023/01/01 01:00:06;;;;;;;4.70;2.67;;;14.30;99.90;;;;;;5115550;28;20177;-52
2023/01/01 01:02:31;;;;;;;6.28;2.60;;;14.30;99.90;;;;;;5115540;28;20177;-50
2023/01/01 01:04:57;;;;;;;5.75;2.30;;;14.30;99.90;;;;;;5114232;28;20202;-54
2023/01/01 01:07:23;;;;;;;6.55;2.58;;;14.40;99.90;;;;;;5115238;28;20176;-54
2023/01/01 01:09:48;;;;;;;5.55;2.50;;;14.30;99.90;;;;;;5114046;28;20174;-53
2023/01/01 01:12:14;;;;;;;7.70;3.25;;;14.30;99.90;;;;;;5115177;28;20685;-51
2023/01/01 01:14:39;;;;;;;4.63;2.72;;;14.30;99.90;;;;;;5115154;28;20173;-54
2023/01/01 01:17:05;;;;;;;4.63;2.63;;;14.30;99.90;;;;;;5114981;28;20205;-53
2023/01/01 01:19:31;;;;;;;6.63;2.85;;;14.30;99.90;;;;;;5115052;28;20538;-54
2023/01/01 01:21:56;;;;;;;4.10;2.40;;;14.40;99.90;;;;;;5115080;28;20184;-53
2023/01/01 01:24:22;;;;;;;6.53;2.22;;;14.40;99.90;;;;;;5115019;28;20252;-53
2023/01/01 01:26:48;;;;;;;4.57;2.28;;;14.30;99.90;;;;;;5113704;28;20201;-54
2023/01/01 01:29:13;;;;;;;5.78;2.42;;;14.30;99.90;;;;;;5114799;28;20185;-53
2023/01/01 01:31:39;;;;;;;4.85;2.30;;;14.40;99.90;;;;;;5114811;28;20247;-51
2023/01/01 01:34:05;;;;;;;6.03;2.40;;;14.30;99.90;;;;;;5115139;28;20206;-54
2023/01/01 01:36:31;;;;;;;7.53;2.50;;;14.30;99.90;;;;;;5114767;28;20178;-51
2023/01/01 01:38:56;;;;;;;5.22;2.13;;;14.30;99.90;;;;;;5114697;28;20338;-53
2023/01/01 01:41:24;;;;;;;4.97;2.20;;;14.40;99.90;;;;;;5113769;28;20226;-53
2023/01/01 01:43:56;;;;;;;6.10;2.30;;;14.40;99.90;;;;;;5114909;28;20193;-53
2023/01/01 01:46:27;;;;;;;6.18;1.90;;;14.50;99.90;;;;;;5114531;28;20166;-54
2023/01/01 01:48:55;;;;;;;4.88;2.00;;;14.40;99.90;;;;;;5115029;28;20177;-53
2023/01/01 01:51:31;;;;;;;6.78;2.05;;;14.40;99.90;;;;;;5114567;28;20572;-54
2023/01/01 01:54:01;;;;;;;6.03;2.45;;;14.50;99.90;;;;;;5114512;28;20176;-55
2023/01/01 01:56:53;;;;;;;4.28;2.00;;;14.50;99.90;;;;;;5114401;28;20184;-53
2023/01/01 01:59:20;;;;;;;4.22;1.88;;;14.50;99.90;;;;;;5107355;28;20196;-54
2023/01/01 02:01:45;;;;;;;6.68;2.20;;;14.50;99.90;;;;;;5114393;28;20173;-54
2023/01/01 02:04:11;;;;;;;4.32;1.98;;;14.50;99.90;;;;;;5114423;28;20180;-52
2023/01/01 02:06:38;;;;;;;4.95;2.17;;;14.60;99.90;;;;;;5114444;28;20260;-54
2023/01/01 02:09:06;;;;;;;4.70;1.90;;;14.60;99.90;;;;;;5114053;28;20177;-54
2023/01/01 02:11:34;;;;;;;6.05;2.38;;;14.60;99.90;;;;;;5114184;28;20191;-54
2023/01/01 02:14:01;;;;;;;6.32;2.50;;;14.60;99.90;;;;;;5114241;28;20175;-53
2023/01/01 02:16:45;;;;;;;4.70;2.13;;;14.70;99.90;;;;;;5114146;28;20177;-54
2023/01/01 02:19:36;;;;;;;7.28;2.35;;;14.70;99.90;;;;;;5114117;28;20264;-54
2023/01/01 02:22:27;;;;;;;3.83;1.95;;;14.70;99.90;;;;;;5114163;28;20170;-53
2023/01/01 02:25:11;;;;;;;6.65;2.45;;;14.60;99.90;;;;;;5114123;28;20176;-54
2023/01/01 02:27:52;;;;;;;4.72;2.50;;;14.60;99.90;;;;;;5114062;28;20169;-53
2023/01/01 02:30:19;;;;;;;4.80;1.92;;;14.50;99.90;;;;;;5114157;28;20173;-52
2023/01/01 02:33:07;;;;;;;4.55;2.40;;;14.50;99.90;;;;;;5113907;28;20173;-52
2023/01/01 02:35:41;;;;;;;7.13;1.90;;;14.50;99.90;;;;;;5113916;28;20634;-51
2023/01/01 02:38:15;;;;;;;8.10;2.03;;;14.50;99.90;;;;;;5113705;28;20209;-51
2023/01/01 02:40:47;;;;;;;4.75;2.20;;;14.50;99.90;;;;;;5114031;28;20177;-51
2023/01/01 02:43:13;;;;;;;4.82;1.95;;;14.40;99.90;;;;;;5113900;28;20185;-51
2023/01/01 02:45:39;;;;;;;5.05;2.00;;;14.50;99.90;;;;;;5113728;28;20191;-52
2023/01/01 02:48:26;;;;;;;8.00;2.10;;;14.50;99.90;;;;;;5113633;28;20177;-52
2023/01/01 02:50:52;;;;;;;5.45;2.00;;;14.50;99.90;;;;;;5113449;28;20676;-51
2023/01/01 02:53:36;;;;;;;2.92;1.88;;;14.50;99.90;;;;;;5117202;28;20196;-55
2023/01/01 02:56:05;;;;;;;7.63;1.85;;;14.60;99.90;;;;;;5118113;28;20169;-51
2023/01/01 03:01:31;;;;;;;4.70;1.95;;;14.40;99.90;;;;;;5117854;28;20211;-52
2023/01/01 03:04:10;;;;;;;5.57;1.95;;;14.40;99.90;;;;;;5117893;28;20165;-52
2023/01/01 03:06:45;;;;;;;3.67;1.77;;;14.50;99.90;;;;;;5116529;28;20165;-52
2023/01/01 03:09:19;;;;;;;4.72;1.65;;;14.50;99.90;;;;;;5117643;28;20196;-52
2023/01/01 03:12:04;;;;;;;6.18;2.10;;;14.50;99.90;;;;;;5117295;28;20177;-52
2023/01/01 03:14:45;;;;;;;5.25;1.95;;;14.60;99.90;;;;;;5117699;28;20169;-51
2023/01/01 03:17:22;;;;;;;5.35;2.00;;;14.60;99.90;;;;;;5117472;28;20200;-51
2023/01/01 03:19:49;;;;;;;5.25;1.77;;;14.60;99.90;;;;;;5117434;28;20652;-54
2023/01/01 03:22:17;;;;;;;4.70;1.60;;;14.60;99.90;;;;;;5117284;27;20179;-52
2023/01/01 03:25:18;;;;;;;5.00;1.90;;;14.60;99.90;;;;;;5117435;28;20252;-51
2023/01/01 03:27:49;;;;;;;5.50;2.17;;;14.60;99.90;;;;;;5117345;28;20646;-55
2023/01/01 03:30:18;;;;;;;7.72;2.00;;;14.60;99.90;;;;;;5117120;28;20511;-53
2023/01/01 03:33:07;;;;;;;4.68;1.92;;;14.50;99.90;;;;;;5117134;28;20649;-54
2023/01/01 03:35:36;;;;;;;6.43;1.90;;;14.60;99.90;;;;;;5116704;28;20608;-53
2023/01/01 03:38:09;;;;;;;4.53;1.90;;;14.60;99.90;;;;;;5116910;28;20201;-51
2023/01/01 03:40:37;;;;;;;3.67;1.65;;;14.70;99.90;;;;;;5117026;28;20634;-52
2023/01/01 03:43:10;;;;;;;10.25;2.15;;;14.60;99.90;;;;;;5116811;28;20550;-51
2023/01/01 03:45:41;;;;;;;5.68;1.80;;;14.60;99.90;;;;;;5117227;28;20252;-52
2023/01/01 03:48:07;;;;;;;8.90;2.28;;;14.60;99.90;;;;;;5117019;28;20252;-50
2023/01/01 03:50:51;;;;;;;7.03;2.00;;;14.60;99.90;;;;;;5116879;28;20223;-51
2023/01/01 03:53:40;;;;;;;5.72;2.08;;;14.60;99.90;;;;;;5116780;28;20626;-53
2023/01/01 03:56:39;;;;;;;4.78;2.22;;;14.60;99.90;;;;;;5116934;28;20190;-51
2023/01/01 03:59:21;;;;;;;6.57;2.10;;;14.50;99.90;;;;;;5116610;28;20296;-54
2023/01/01 04:01:55;;;;;;;7.72;2.25;;;14.50;99.90;;;;;;5116460;28;20568;-52
2023/01/01 04:04:21;;;;;;;7.72;2.15;;;14.40;99.90;;;;;;5115806;28;20168;-53
2023/01/01 04:06:47;;;;;;;5.35;2.03;;;14.50;99.90;;;;;;5116530;28;20678;-51
2023/01/01 04:09:17;;;;;;;6.00;2.20;;;14.50;99.90;;;;;;5115358;28;20181;-52
2023/01/01 04:12:00;;;;;;;6.38;1.98;;;14.50;99.90;;;;;;5116664;28;20590;-54
2023/01/01 04:14:38;;;;;;;6.80;2.00;;;14.40;99.90;;;;;;5116363;28;20513;-51
2023/01/01 04:17:06;;;;;;;6.20;1.92;;;14.50;99.90;;;;;;5116524;28;20612;-51
2023/01/01 04:19:32;;;;;;;5.35;1.90;;;14.40;99.90;;;;;;5116315;28;20170;-53
2023/01/01 04:21:58;;;;;;;7.50;2.22;;;14.40;99.90;;;;;;5116329;28;20576;-53
2023/01/01 04:24:24;;;;;;;4.50;1.90;;;14.40;99.90;;;;;;5116118;28;20177;-54
2023/01/01 04:26:51;;;;;;;6.43;2.05;;;14.40;99.90;;;;;;5116104;28;20534;-53
2023/01/01 04:29:17;;;;;;;8.13;2.40;;;14.40;99.90;;;;;;5116252;28;20178;-51
2023/01/01 04:31:43;;;;;;;6.47;2.25;;;14.40;99.90;;;;;;5115967;28;20178;-53
2023/01/01 04:34:09;;;;;;;6.82;2.20;;;14.50;99.90;;;;;;5116035;28;20259;-54
2023/01/01 04:36:35;;;;;;;6.45;2.08;;;14.50;99.90;;;;;;5115929;28;20315;-53
2023/01/01 04:39:01;;;;;;;9.93;2.40;;;14.40;99.90;;;;;;5115829;28;20228;-52
2023/01/01 04:41:27;;;;;;;3.65;1.85;;;14.40;99.90;;;;;;5115904;28;20260;-53
2023/01/01 04:43:53;;;;;;;9.13;2.53;;;14.30;99.90;;;;;;5115933;28;20268;-52
2023/01/01 04:46:20;;;;;;;4.93;2.10;;;14.40;99.90;;;;;;5115755;28;20181;-53
2023/01/01 04:48:46;;;;;;;7.13;2.20;;;14.30;99.90;;;;;;5114580;28;20632;-51
2023/01/01 04:51:13;;;;;;;4.35;2.03;;;14.30;99.90;;;;;;5115782;28;20649;-53
2023/01/01 04:53:39;;;;;;;7.45;2.20;;;14.30;99.90;;;;;;5115417;28;20173;-52
2023/01/01 04:56:11;;;;;;;8.20;2.00;;;14.30;99.90;;;;;;5115562;27;20257;-54
2023/01/01 04:58:39;;;;;;;5.28;1.85;;;14.30;99.90;;;;;;5115597;28;20291;-54
2023/01/01 05:01:05;;;;;;;5.22;2.20;;;14.20;99.90;;;;;;5115561;28;20185;-54
2023/01/01 05:03:31;;;;;;;5.75;1.90;;;14.30;99.90;;;;;;5115463;28;20174;-51
2023/01/01 05:06:02;;;;;;;4.20;1.35;;;14.30;99.90;;;;;;5115425;28;20174;-52
2023/01/01 05:08:36;;;;;;;4.63;1.50;;;14.30;99.90;;;;;;5115250;28;20173;-54
2023/01/01 05:11:04;;;;;;;7.57;1.85;;;14.10;99.90;;;;;;5115668;28;20212;-54
2023/01/01 05:13:30;;;;;;;4.00;1.70;;;14.10;99.90;;;;;;5115381;28;20205;-54
2023/01/01 05:15:56;;;;;;;3.47;1.27;;;14.00;99.90;;;;;;5115452;28;20212;-56
2023/01/01 05:18:21;;;;;;;5.20;1.65;;;13.90;99.90;;;;;;5115064;28;20197;-53
2023/01/01 05:20:47;;;;;;;4.03;1.30;;;13.90;99.90;;;;;;5114931;28;20508;-55
2023/01/01 05:23:15;;;;;;;3.17;0.95;;;13.80;99.90;;;;;;5114826;28;20169;-53
2023/01/01 05:25:41;;;;;;;3.13;1.00;;;13.80;99.90;;;;;;5115025;28;20635;-53
2023/01/01 05:28:07;;;;;;;4.18;1.10;;;13.60;99.90;;;;;;5114899;28;20184;-54
2023/01/01 05:30:33;;;;;;;4.20;1.20;;;13.50;99.90;;;;;;5115153;28;20166;-51
2023/01/01 05:32:58;;;;;;;3.60;1.40;;;13.40;99.90;;;;;;5114756;28;20170;-53
2023/01/01 05:35:24;;;;;;;3.63;1.20;;;13.20;99.90;;;;;;5114688;28;20185;-54
2023/01/01 05:37:50;;;;;;;4.60;1.60;;;13.10;99.90;;;;;;5114567;28;20240;-54
2023/01/01 05:40:16;;;;;;;8.00;1.70;;;12.90;99.90;;;;;;5114819;28;20306;-55
2023/01/01 05:42:42;;;;;;;4.53;1.42;;;12.90;99.90;;;;;;5114601;28;20177;-54
2023/01/01 05:45:08;;;;;;;4.10;1.58;;;12.90;99.90;;;;;;5114622;28;20204;-53
2023/01/01 05:47:34;;;;;;;4.75;1.70;;;12.90;99.90;;;;;;5114559;27;20242;-53
2023/01/01 05:49:59;;;;;;;6.68;1.67;;;12.70;99.90;;;;;;5114405;28;20173;-53
2023/01/01 05:52:25;;;;;;;6.15;2.00;;;12.70;99.90;;;;;;5114334;28;20592;-55
2023/01/01 05:54:50;;;;;;;7.55;2.13;;;12.60;99.90;;;;;;5113291;28;20170;-53
2023/01/01 05:57:16;;;;;;;5.60;1.85;;;12.40;99.90;;;;;;5114364;28;20723;-54
2023/01/01 05:59:45;;;;;;;5.93;1.95;;;12.30;99.90;;;;;;5114270;28;20173;-54
2023/01/01 06:02:10;;;;;;;4.63;1.70;;;12.40;99.90;;;;;;5114246;28;20170;-54
2023/01/01 06:04:36;;;;;;;8.70;2.13;;;12.50;99.90;;;;;;5114102;28;20181;-54
2023/01/01 06:07:01;;;;;;;9.05;2.10;;;12.50;99.90;;;;;;5114364;28;20184;-54
2023/01/01 06:09:27;;;;;;;6.40;1.75;;;12.40;99.90;;;;;;5114330;28;20169;-54
2023/01/01 06:11:53;;;;;;;6.60;1.90;;;12.30;99.90;;;;;;5114123;28;20272;-55
2023/01/01 06:14:18;;;;;;;5.07;1.80;;;12.20;99.90;;;;;;5114035;28;20174;-54
2023/01/01 06:16:44;;;;;;;4.70;1.52;;;12.20;99.90;;;;;;5114027;28;20197;-53
2023/01/01 06:19:10;;;;;;;7.50;2.15;;;12.10;99.90;;;;;;5113768;28;20216;-54
2023/01/01 06:21:35;;;;;;;4.95;1.80;;;12.20;99.90;;;;;;5114142;28;20620;-53
2023/01/01 06:24:01;;;;;;;7.45;2.17;;;12.10;99.90;;;;;;5113952;28;20204;-51
2023/01/01 06:26:32;;;;;;;6.88;1.92;;;12.00;99.90;;;;;;5112281;28;20251;-53
2023/01/01 06:28:59;;;;;;;4.80;1.80;;;12.00;99.90;;;;;;5113915;28;20169;-51
2023/01/01 06:31:26;;;;;;;6.93;2.40;;;12.00;99.90;;;;;;5113800;28;20309;-54
2023/01/01 06:33:52;;;;;;;5.35;1.75;;;12.00;99.90;;;;;;5113690;28;20169;-51
2023/01/01 06:36:21;;;;;;;6.75;2.13;;;12.20;99.90;;;;;;5113712;28;20235;-53
2023/01/01 06:38:49;;;;;;;5.38;1.70;;;12.10;99.90;;;;;;5113792;28;20205;-53
2023/01/01 06:41:17;;;;;;;10.07;2.22;;;12.10;99.90;;;;;;5113905;28;20173;-54
2023/01/01 06:43:43;;;;;;;6.82;2.03;;;12.00;99.90;;;;;;5112396;28;20193;-53
2023/01/01 06:46:25;;;;;;;7.68;2.10;;;12.00;99.90;;;;;;5113601;28;20172;-54
2023/01/01 06:48:54;;;;;;;8.80;2.00;;;12.10;99.90;;;;;;5113811;28;20177;-52
2023/01/01 06:51:22;;;;;;;7.32;2.03;;;12.10;99.90;;;;;;5113766;28;20211;-56
2023/01/01 06:53:49;;;;;;;7.05;2.30;;;12.10;99.90;;;;;;5113714;28;20161;-55
2023/01/01 06:56:15;;;;;;;7.97;2.45;;;12.10;99.90;;;;;;5113549;28;20189;-53
2023/01/01 06:58:41;;;;;;;9.27;2.08;;;12.20;99.90;;;;;;5113403;28;20203;-54
2023/01/01 07:01:18;;;;;;;5.07;1.83;;;12.20;99.90;;;;;;5113666;28;20208;-54
2023/01/01 07:03:50;;;;;;;9.07;2.22;;;12.20;99.90;;;;;;5113616;28;20173;-53
2023/01/01 07:06:16;;;;;;;9.18;2.25;;;12.20;99.90;;;;;;5113580;28;20260;-54
2023/01/01 07:08:42;;;;;;;7.38;2.25;;;12.20;99.90;;;;;;5113428;28;20264;-54
2023/01/01 07:11:07;;;;;;;7.15;2.13;;;12.20;99.90;;;;;;5113422;28;20188;-54
2023/01/01 07:13:33;;;;;;;9.80;2.50;;;12.20;99.90;;;;;;5113589;28;20231;-54
2023/01/01 07:15:59;;;;;;;7.68;2.47;;;12.20;99.90;;;;;;5113568;28;20173;-52
2023/01/01 07:18:25;;;;;;;7.50;2.40;;;12.10;99.90;;;;;;5113234;28;20295;-53
2023/01/01 07:20:58;;;;;;;9.23;2.85;;;12.20;99.90;;;;;;5113310;28;20277;-53
2023/01/01 07:23:26;;;;;;;10.13;2.35;;;12.30;99.90;;;;;;5113420;28;20197;-54
2023/01/01 07:25:52;;;;;;;8.30;2.42;;;12.40;99.90;;;;;;5113116;28;20688;-54
2023/01/01 07:28:22;;;;;;;10.20;2.70;;;12.40;99.90;;;;;;5113397;28;20170;-51
2023/01/01 07:30:48;;;;;;;8.52;2.65;;;12.30;99.90;;;;;;5113127;28;20516;-53
2023/01/01 07:33:16;;;;;;;7.95;2.50;;;12.30;99.90;;;;;;5112050;28;20184;-54
2023/01/01 07:35:43;;;;;;;10.10;2.47;;;12.30;99.90;;;;;;5113169;28;20173;-53
2023/01/01 07:38:09;;;;;;;6.50;2.10;;;12.30;99.90;;;;;;5113012;28;20209;-54
2023/01/01 07:40:35;;;;;;;10.77;2.58;;;12.30;99.90;;;;;;5115320;28;20189;-53
2023/01/01 07:43:01;;;;;;;9.13;2.55;;;12.20;99.90;;;;;;5116935;28;20185;-53
2023/01/01 07:45:27;;;;;;;7.80;2.50;;;12.20;99.90;;;;;;5117054;28;20618;-53
2023/01/01 07:47:54;;;;;;;11.68;2.75;;;12.30;99.90;;;;;;5116852;28;20574;-52
2023/01/01 07:50:21;;;;;;;10.73;2.50;;;12.30;99.90;;;;;;5116579;28;20165;-54
2023/01/01 07:52:47;;;;;;;8.15;2.33;;;12.30;99.90;;;;;;5116940;28;20177;-54
2023/01/01 07:55:14;;;;;;;9.40;2.47;;;12.30;99.90;;;;;;5116607;28;20177;-54
2023/01/01 07:57:41;;;;;;;9.73;2.25;;;12.30;99.90;;;;;;5116823;28;20205;-52
2023/01/01 08:00:09;;;;;;;8.85;2.50;;;12.30;99.90;;;;;;5116302;28;20230;-55
2023/01/01 08:02:35;;;;;;;8.80;2.90;;;12.40;99.90;;;;;;5113291;28;20177;-56
2023/01/01 08:05:01;;;;;;;8.40;2.55;;;12.30;99.90;;;;;;5114489;28;20579;-53
2023/01/01 08:07:26;;;;;;;7.05;2.42;;;12.40;99.90;;;;;;5114841;28;20169;-55
2023/01/01 08:09:52;;;;;;;7.10;2.50;;;12.40;99.90;;;;;;5115139;28;20177;-54
2023/01/01 08:12:17;;;;;;;7.32;2.65;;;12.20;99.90;;;;;;5114513;28;20180;-54
2023/01/01 08:14:46;;;;;;;8.90;2.63;;;12.20;99.90;;;;;;5114907;28;20264;-54
2023/01/01 08:17:12;;;;;;;12.27;2.72;;;12.10;99.90;;;;;;5115445;28;20169;-53
2023/01/01 08:19:37;;;;;;;10.02;2.90;;;12.20;99.90;;;;;;5116286;28;20192;-54
2023/01/01 08:22:03;;;;;;;8.40;2.53;;;12.10;99.90;;;;;;5114645;28;20250;-54
2023/01/01 08:24:29;;;;;;;6.97;2.75;;;12.10;99.90;;;;;;5115859;28;20274;-54
2023/01/01 08:26:54;;;;;;;10.07;3.50;;;12.00;99.90;;;;;;5116305;28;20174;-54
2023/01/01 08:29:20;;;;;;;9.38;2.83;;;12.10;99.90;;;;;;5116028;28;20170;-54
2023/01/01 08:31:46;;;;;;;8.77;3.22;;;12.10;99.90;;;;;;5115786;28;20169;-54
2023/01/01 08:34:11;;;;;;;7.47;2.88;;;12.10;99.90;;;;;;5115627;28;20192;-54
2023/01/01 08:36:39;;;;;;;7.05;2.53;;;12.10;99.90;;;;;;5115601;28;20226;-53
2023/01/01 08:39:06;;;;;;;7.43;2.80;;;12.10;99.90;;;;;;5114497;28;20208;-53
2023/01/01 08:41:31;;;;;;;10.98;3.20;;;12.10;99.90;;;;;;5115641;28;20177;-53
2023/01/01 08:43:57;;;;;;;7.70;2.97;;;12.00;99.90;;;;;;5115316;28;20215;-54
2023/01/01 08:46:23;;;;;;;7.13;3.00;;;12.00;99.90;;;;;;5115467;28;20680;-54
2023/01/01 08:48:49;;;;;;;7.97;3.10;;;12.10;99.90;;;;;;5115342;28;20276;-54
2023/01/01 08:51:14;;;;;;;9.05;3.03;;;12.00;99.90;;;;;;5115029;28;20178;-54
2023/01/01 08:53:40;;;;;;;9.57;2.92;;;12.00;99.90;;;;;;5115533;28;20255;-54
2023/01/01 08:56:10;;;;;;;11.98;3.47;;;12.00;99.90;;;;;;5115681;28;20195;-53
2023/01/01 08:58:38;;;;;;;8.00;3.08;;;11.90;99.90;;;;;;5115243;28;20666;-53
2023/01/01 09:01:04;;;;;;;9.98;3.75;;;12.00;99.90;;;;;;5115291;28;20165;-53
2023/01/01 09:03:33;;;;;;;10.73;4.20;;;12.00;99.90;;;;;;5115223;28;20197;-52
2023/01/01 09:05:59;;;;;;;8.55;4.10;;;12.10;99.90;;;;;;5115231;28;20169;-53
2023/01/01 09:08:25;;;;;;;10.30;4.03;;;12.00;99.90;;;;;;5115001;28;20230;-53
2023/01/01 09:10:52;;;;;;;9.38;3.63;;;12.00;99.90;;;;;;5114991;28;20178;-53
2023/01/01 09:13:20;;;;;;;7.90;3.33;;;12.10;99.90;;;;;;5114987;28;20584;-53
2023/01/01 09:15:46;;;;;;;9.70;3.25;;;12.00;99.90;;;;;;5115066;28;20172;-54
2023/01/01 09:18:12;;;;;;;9.82;3.70;;;12.00;99.90;;;;;;5114796;28;20205;-56
2023/01/01 09:20:38;;;;;;;8.82;3.05;;;12.00;99.90;;;;;;5115238;28;20636;-53
2023/01/01 09:23:04;;;;;;;10.40;3.38;;;12.10;99.90;;;;;;5115440;28;20211;-53
2023/01/01 09:25:30;;;;;;;12.15;3.45;;;12.10;99.90;;;;;;5115101;28;20173;-54
2023/01/01 09:27:57;;;;;;;11.45;3.60;;;12.10;99.90;;;;;;5114958;28;20177;-55
2023/01/01 09:30:23;;;;;;;6.50;2.80;;;12.20;99.90;;;;;;5114897;28;20165;-53
2023/01/01 09:32:48;;;;;;;10.57;3.42;;;12.20;99.90;;;;;;5114678;28;20307;-52
2023/01/01 09:35:14;;;;;;;10.55;3.58;;;12.10;99.90;;;;;;5114993;28;20184;-53
2023/01/01 09:37:40;;;;;;;8.60;3.55;;;12.20;99.90;;;;;;5114755;28;20227;-53
2023/01/01 09:40:07;;;;;;;8.80;3.30;;;12.30;99.90;;;;;;5114695;28;20242;-53
2023/01/01 09:42:44;;;;;;;8.93;3.10;;;12.20;99.90;;;;;;5114492;28;20681;-53
2023/01/01 09:45:24;;;;;;;8.25;3.13;;;12.20;99.90;;;;;;5114593;28;20634;-54
2023/01/01 09:47:59;;;;;;;10.85;3.53;;;12.20;99.90;;;;;;5114731;28;20230;-54
2023/01/01 09:50:43;;;;;;;10.98;3.50;;;12.20;99.90;;;;;;5114588;28;20223;-54
2023/01/01 09:53:18;;;;;;;10.13;3.10;;;12.40;99.90;;;;;;5114375;28;20213;-55
2023/01/01 09:55:55;;;;;;;8.07;3.03;;;12.30;99.90;;;;;;5114239;28;20173;-56
2023/01/01 09:58:25;;;;;;;9.65;3.65;;;12.30;99.90;;;;;;5114389;28;20223;-52
2023/01/01 10:00:54;;;;;;;10.18;3.20;;;12.30;99.90;;;;;;5114265;28;20526;-52
2023/01/01 10:03:58;;;;;;;10.55;4.03;;;12.40;99.90;;;;;;5113797;28;20618;-52
2023/01/01 10:06:29;;;;;;;10.88;3.47;;;12.50;99.90;;;;;;5114059;28;20165;-53
2023/01/01 10:09:06;;;;;;;8.60;3.03;;;12.40;99.90;;;;;;5114347;28;20260;-54
2023/01/01 10:12:00;;;;;;;10.10;3.53;;;12.40;99.90;;;;;;5114050;28;20721;-54
2023/01/01 10:14:37;;;;;;;9.77;3.30;;;12.50;99.90;;;;;;5113941;28;20572;-53
2023/01/01 10:17:11;;;;;;;10.13;3.25;;;12.60;99.90;;;;;;5114280;28;20517;-54
2023/01/01 10:19:43;;;;;;;8.80;3.45;;;12.70;99.90;;;;;;5112828;28;20192;-54
2023/01/01 10:22:42;;;;;;;7.90;3.25;;;12.70;99.90;;;;;;5113970;28;20215;-54
2023/01/01 10:25:20;;;;;;;10.32;3.55;;;12.80;99.90;;;;;;5113947;28;20199;-52
2023/01/01 10:28:00;;;;;;;9.23;3.38;;;12.80;99.90;;;;;;5113518;28;20165;-54
2023/01/01 10:30:28;;;;;;;10.88;3.30;;;12.90;99.90;;;;;;5112598;28;20169;-51
2023/01/01 10:32:55;;;;;;;8.73;2.88;;;12.90;99.90;;;;;;5113446;28;20166;-52
2023/01/01 10:35:34;;;;;;;10.15;3.35;;;12.80;99.90;;;;;;5112832;28;20177;-52
2023/01/01 10:38:01;;;;;;;9.02;3.30;;;12.90;99.90;;;;;;5113324;27;20224;-53
2023/01/01 10:40:28;;;;;;;10.00;3.65;;;13.10;99.90;;;;;;5112837;28;20177;-53
2023/01/01 10:42:59;;;;;;;9.60;3.63;;;13.20;99.90;;;;;;5113791;28;20193;-54
2023/01/01 10:45:34;;;;;;;8.68;3.22;;;13.30;99.90;;;;;;5113601;28;20229;-53
2023/01/01 10:48:15;;;;;;;8.68;3.40;;;13.50;99.90;;;;;;5113185;28;20196;-52
2023/01/01 10:50:43;;;;;;;8.95;3.00;;;13.60;99.90;;;;;;5112992;28;20618;-53
2023/01/01 10:53:25;;;;;;;8.38;2.72;;;13.70;99.90;;;;;;5113429;28;20631;-52
2023/01/01 10:56:04;;;;;;;9.93;3.10;;;13.70;99.90;;;;;;5113314;28;20173;-52
2023/01/01 10:58:54;;;;;;;10.15;2.83;;;13.80;99.90;;;;;;5113127;28;20203;-53
2023/01/01 11:01:28;;;;;;;10.55;3.40;;;13.90;99.90;;;;;;5113441;28;20222;-54
2023/01/01 11:04:12;;;;;;;11.13;3.22;;;13.90;99.90;;;;;;5113564;28;20169;-53
2023/01/01 11:06:44;;;;;;;9.43;3.08;;;13.90;99.90;;;;;;5113290;28;20181;-55
2023/01/01 11:09:25;;;;;;;8.40;2.95;;;13.90;99.90;;;;;;5113482;28;20208;-50
2023/01/01 11:11:59;;;;;;;10.20;2.80;;;14.00;99.90;;;;;;5113502;28;20177;-52
2023/01/01 11:14:29;;;;;;;6.50;2.80;;;14.00;99.90;;;;;;5116805;28;20197;-51
2023/01/01 11:16:56;;;;;;;6.20;2.75;;;14.00;99.90;;;;;;5116072;28;20188;-51
2023/01/01 11:19:26;;;;;;;10.38;3.00;;;13.90;99.90;;;;;;5115979;28;20201;-51
2023/01/01 11:21:52;;;;;;;10.57;3.00;;;13.90;99.90;;;;;;5116654;28;20177;-55
2023/01/01 11:24:25;;;;;;;11.18;3.33;;;13.90;99.90;;;;;;5117052;28;20304;-54
2023/01/01 11:26:52;;;;;;;9.57;3.05;;;13.90;99.90;;;;;;5117405;28;20226;-54
2023/01/01 11:29:24;;;;;;;10.00;3.20;;;13.90;99.90;;;;;;5099136;28;20180;-51
2023/01/01 11:31:51;;;;;;;6.97;2.83;;;14.00;99.90;;;;;;5117111;28;20165;-53
2023/01/01 11:34:41;;;;;;;12.35;2.88;;;14.00;99.90;;;;;;5117458;28;20165;-51
2023/01/01 11:37:26;;;;;;;10.10;3.05;;;14.10;99.90;;;;;;5117308;28;20165;-51
2023/01/01 11:39:55;;;;;;;10.75;2.70;;;14.10;99.90;;;;;;5117248;28;20157;-54
2023/01/01 11:42:31;;;;;;;11.00;2.83;;;14.10;99.90;;;;;;5117502;28;20182;-54
2023/01/01 11:45:02;;;;;;;11.70;2.55;;;14.10;99.90;;;;;;5115682;28;20737;-51
2023/01/01 11:47:34;;;;;;;9.40;2.60;;;14.10;99.90;;;;;;5117063;28;20177;-51
2023/01/01 11:50:04;;;;;;;7.00;2.60;;;14.20;99.90;;;;;;5117408;28;20619;-51
2023/01/01 11:52:40;;;;;;;9.60;2.53;;;14.10;99.90;;;;;;5116651;28;20662;-52
2023/01/01 11:55:26;;;;;;;8.70;2.13;;;14.10;99.90;;;;;;5116952;28;20172;-51
2023/01/01 11:58:13;;;;;;;13.82;3.30;;;14.10;99.90;;;;;;5116820;28;20216;-54
2023/01/01 12:00:40;;;;;;;9.27;2.58;;;14.10;99.90;;;;;;5116687;28;20264;-52
2023/01/01 12:03:11;;;;;;;9.25;2.67;;;14.10;99.90;;;;;;5116203;28;20189;-51
2023/01/01 12:05:49;;;;;;;7.35;2.67;;;14.00;99.90;;;;;;5115270;28;20176;-52
2023/01/01 12:08:32;;;;;;;8.98;2.60;;;14.00;99.90;;;;;;5114436;28;20176;-54
2023/01/01 12:11:06;;;;;;;12.27;2.78;;;14.00;99.90;;;;;;5113131;28;20260;-52
2023/01/01 12:13:39;;;;;;;12.45;3.00;;;13.90;99.90;;;;;;5114622;28;20173;-55
2023/01/01 12:16:32;;;;;;;10.40;3.35;;;14.00;99.90;;;;;;5114347;28;20315;-54
2023/01/01 12:19:17;;;;;;;6.63;2.35;;;14.10;99.90;;;;;;5114353;28;20193;-55
2023/01/01 12:21:48;;;;;;;11.60;3.67;;;14.00;99.90;;;;;;5115933;28;20713;-53
2023/01/01 12:24:13;;;;;;;9.63;2.67;;;14.00;99.90;;;;;;5116340;28;20169;-52
2023/01/01 12:27:08;;;;;;;8.57;2.50;;;14.00;99.90;;;;;;5115920;28;20177;-54
2023/01/01 12:29:48;;;;;;;8.40;2.60;;;14.00;99.90;;;;;;5116597;28;20180;-52
2023/01/01 12:32:36;;;;;;;8.30;2.80;;;14.00;99.90;;;;;;5116298;28;20157;-54
2023/01/01 12:35:19;;;;;;;12.82;3.28;;;14.00;99.90;;;;;;5116375;28;20166;-54
2023/01/01 12:37:48;;;;;;;11.52;2.80;;;14.10;99.90;;;;;;5115985;28;20204;-52
2023/01/01 12:40:33;;;;;;;12.45;3.00;;;14.20;99.90;;;;;;5115818;28;20538;-52
2023/01/01 12:43:10;;;;;;;9.05;2.70;;;14.20;99.90;;;;;;5116315;28;20568;-52
2023/01/01 12:46:14;;;;;;;9.40;2.78;;;14.20;99.90;;;;;;5114595;28;20165;-54
2023/01/01 12:48:57;;;;;;;7.28;2.35;;;14.20;99.90;;;;;;5111475;28;20184;-53
2023/01/01 12:51:40;;;;;;;11.32;3.10;;;14.20;99.90;;;;;;5115652;28;20177;-51
2023/01/01 12:54:24;;;;;;;10.20;3.08;;;14.20;99.90;;;;;;5115649;28;20638;-54
2023/01/01 12:57:21;;;;;;;12.50;3.20;;;14.30;99.90;;;;;;5115637;28;20169;-53
2023/01/01 12:59:49;;;;;;;11.65;3.20;;;14.40;99.90;;;;;;5115475;28;20538;-55
2023/01/01 13:02:28;;;;;;;7.75;2.88;;;14.20;99.90;;;;;;5115651;28;20184;-53
2023/01/01 13:05:00;;;;;;;10.77;3.30;;;14.30;99.90;;;;;;5115402;28;20176;-54
2023/01/01 13:07:33;;;;;;;11.07;3.17;;;14.30;99.90;;;;;;5115221;28;20643;-54